Disclaimer

Please do not use the information listed here in-flight or in-navigation, as they are not provided to us by the airports but are provided by volunteers, so they might be outdated.

Search


Regions


Airport information page

Radio informations:
BREMEN INFO - 125.1 MHz
BREMEN CON - 128.775 MHz
RADAR - 123.3 MHz

Airport informations:
Latitude: 54° 27' 33.60" N
Longitude: 009° 30' 58.80" E
Elevation: 70 feet - 21 meters
Operating hours: Remarks
Operating agency: Military
Timezone: UTC+1(+2DT) - Last Sunday in March to last Sunday in October
Fuel: JP-8, SemiKeroscene MIL Spec T-83133, without icing inhibitor

100/130 octane gasoline, leaded, MIL-L-5572F (GREEN)

Runway information:
05/23 - 8003 x 98 feet< - >2439 x 30 meters
07/25 - 6554 x 148 feet< - >1998 x 45 meters

Recent METARs:
ETNS 172020Z AUTO 07006KT 9999 // ////// 02/00 Q1038 ///
ETNS 172020Z AUTO 07006KT 9999 // ////// 02/00 Q1038 ///
ETNS 172120Z AUTO 09005KT 9999 // ////// 02/M00 Q1037 ///

Airport on the map: